createdAt,value
2019-04-22T00:02:13.823Z,4.47
2019-04-22T00:04:54.711Z,4.90
2019-04-22T00:07:36.213Z,4.27
2019-04-22T00:10:11.795Z,5.73
2019-04-22T00:12:42.339Z,4.63
2019-04-22T00:15:04.016Z,4.97
2019-04-22T00:17:48.304Z,5.30
2019-04-22T00:20:11.469Z,4.80
2019-04-22T00:22:42.589Z,4.57
2019-04-22T00:25:17.035Z,4.80
2019-04-22T00:27:40.730Z,4.77
2019-04-22T00:30:13.495Z,5.07
2019-04-22T00:32:45.936Z,4.60
2019-04-22T00:35:16.650Z,4.73
2019-04-22T00:37:43.718Z,4.83
2019-04-22T00:40:16.528Z,4.50
2019-04-22T00:45:15.697Z,5.43
2019-04-22T00:47:41.560Z,5.20
2019-04-22T00:52:41.705Z,5.43
2019-04-22T00:55:12.373Z,4.63
2019-04-22T00:57:42.612Z,5.03
2019-04-22T01:00:11.990Z,5.47
2019-04-22T01:02:48.012Z,5.07
2019-04-22T01:05:16.989Z,4.73
2019-04-22T01:07:44.579Z,4.77
2019-04-22T01:10:11.602Z,4.87
2019-04-22T01:12:44.026Z,4.27
2019-04-22T01:15:20.846Z,4.73
2019-04-22T01:17:46.446Z,4.53
2019-04-22T01:22:38.151Z,4.73
2019-04-22T01:25:08.590Z,4.73
2019-04-22T01:27:36.626Z,4.23
2019-04-22T01:30:02.483Z,4.70
2019-04-22T01:32:27.312Z,4.17
2019-04-22T01:35:02.333Z,4.80
2019-04-22T01:37:34.532Z,4.37
2019-04-22T01:40:17.785Z,4.27
2019-04-22T01:42:53.557Z,4.50
2019-04-22T01:45:14.244Z,4.30
2019-04-22T01:47:43.755Z,4.40
2019-04-22T01:50:15.833Z,4.83
2019-04-22T01:52:47.326Z,4.40
2019-04-22T01:55:17.691Z,4.70
2019-04-22T01:57:44.460Z,4.30
2019-04-22T02:00:05.237Z,4.03
2019-04-22T02:02:42.165Z,4.10
2019-04-22T02:07:42.104Z,4.27
2019-04-22T02:10:20.837Z,3.93
2019-04-22T02:12:45.895Z,4.53
2019-04-22T02:15:16.750Z,4.27
2019-04-22T02:17:53.151Z,4.00
2019-04-22T02:20:19.763Z,4.17
2019-04-22T02:23:40.375Z,4.57
2019-04-22T02:25:51.642Z,3.80
2019-04-22T02:28:25.669Z,4.67
2019-04-22T02:31:01.942Z,5.03
2019-04-22T02:33:46.600Z,4.97
2019-04-22T02:36:20.237Z,4.43
2019-04-22T02:38:34.065Z,4.60
2019-04-22T02:41:10.196Z,4.03
2019-04-22T02:43:35.635Z,3.70
2019-04-22T02:46:02.985Z,4.40
2019-04-22T02:48:44.180Z,3.70
2019-04-22T02:50:54.133Z,3.60
2019-04-22T02:53:58.418Z,3.37
2019-04-22T02:56:05.005Z,3.27
2019-04-22T02:58:32.716Z,4.53
2019-04-22T03:01:01.385Z,4.20
2019-04-22T03:03:31.320Z,4.30
2019-04-22T03:06:05.513Z,4.70
2019-04-22T03:08:25.585Z,4.13
2019-04-22T03:13:32.447Z,4.00
2019-04-22T03:16:01.266Z,4.30
2019-04-22T03:18:29.150Z,3.90
2019-04-22T03:28:30.976Z,3.97
2019-04-22T03:36:08.577Z,4.97
2019-04-22T03:38:51.687Z,4.37
2019-04-22T03:41:05.478Z,4.73
2019-04-22T03:43:38.102Z,4.30
2019-04-22T03:45:52.990Z,4.60
2019-04-22T03:48:35.861Z,4.63
2019-04-22T03:56:03.982Z,4.17
2019-04-22T03:58:28.473Z,4.17
2019-04-22T04:01:21.766Z,4.00
2019-04-22T04:03:29.033Z,3.57
2019-04-22T04:10:55.318Z,3.90
2019-04-22T04:15:55.870Z,3.30
2019-04-22T04:18:39.254Z,6.80
2019-04-22T04:21:14.515Z,2.87
2019-04-22T04:23:37.469Z,2.93
2019-04-22T04:26:04.381Z,3.70
2019-04-22T04:30:59.948Z,4.00
2019-04-22T04:33:31.062Z,4.50
2019-04-22T04:38:38.802Z,4.40
2019-04-22T04:40:58.255Z,5.40
2019-04-22T04:43:42.069Z,5.50
2019-04-22T04:46:06.469Z,4.40
2019-04-22T04:48:44.826Z,4.77
2019-04-22T04:53:29.172Z,4.60
2019-04-22T04:56:02.065Z,4.50
2019-04-22T05:01:07.132Z,5.17
2019-04-22T05:03:43.600Z,4.53
2019-04-22T05:06:07.510Z,4.50
2019-04-22T05:08:52.871Z,3.80
2019-04-22T05:11:16.150Z,4.20
2019-04-22T05:13:35.086Z,4.20
2019-04-22T05:16:17.393Z,4.50
2019-04-22T05:18:29.663Z,4.07
2019-04-22T05:23:30.441Z,4.30
2019-04-22T05:26:02.887Z,4.67
2019-04-22T05:28:24.400Z,4.27
2019-04-22T05:30:56.782Z,4.63
2019-04-22T05:35:53.784Z,3.67
2019-04-22T05:38:27.161Z,3.77
2019-04-22T05:40:56.558Z,4.20
2019-04-22T05:43:22.644Z,4.17
2019-04-22T05:45:54.798Z,4.47
2019-04-22T05:48:30.497Z,4.20
2019-04-22T05:50:56.442Z,3.87
2019-04-22T05:53:20.120Z,7.23
2019-04-22T05:55:55.499Z,4.37
2019-04-22T05:58:24.319Z,4.60
2019-04-22T06:01:32.241Z,3.90
2019-04-22T06:03:39.000Z,4.40
2019-04-22T06:06:09.250Z,3.77
2019-04-22T06:08:30.203Z,5.10
2019-04-22T06:11:09.193Z,4.37
2019-04-22T06:13:27.654Z,4.63
2019-04-22T06:16:07.419Z,6.30
2019-04-22T06:18:33.448Z,4.30
2019-04-22T06:21:09.089Z,3.83
2019-04-22T06:23:44.427Z,3.77
2019-04-22T06:31:12.275Z,4.00
2019-04-22T06:33:33.946Z,3.27
2019-04-22T06:38:36.158Z,3.90
2019-04-22T06:41:09.319Z,3.67
2019-04-22T06:43:38.173Z,3.60
2019-04-22T06:46:08.491Z,3.53
2019-04-22T06:48:36.292Z,3.47
2019-04-22T06:51:04.937Z,5.77
2019-04-22T06:53:34.650Z,3.63
2019-04-22T06:56:04.839Z,4.23
2019-04-22T06:58:36.587Z,3.47
2019-04-22T07:01:09.506Z,3.57
2019-04-22T07:03:41.675Z,3.47
2019-04-22T07:06:08.193Z,3.90
2019-04-22T07:09:06.688Z,4.00
2019-04-22T07:11:01.650Z,4.20
2019-04-22T07:13:43.928Z,3.47
2019-04-22T07:16:04.630Z,3.70
2019-04-22T07:18:37.311Z,3.57
2019-04-22T07:26:04.238Z,3.03
2019-04-22T07:28:34.417Z,3.07
2019-04-22T07:31:08.124Z,5.47
2019-04-22T07:33:41.097Z,2.93
2019-04-22T07:36:30.825Z,3.00
2019-04-22T07:38:31.078Z,2.90
2019-04-22T07:41:00.527Z,2.80
2019-04-22T07:43:54.971Z,2.75
2019-04-22T07:46:10.980Z,2.63
2019-04-22T07:48:38.169Z,2.70
2019-04-22T07:53:37.052Z,2.20
2019-04-22T07:56:05.166Z,2.67
2019-04-22T07:58:36.113Z,2.80
2019-04-22T08:01:12.443Z,2.40
2019-04-22T08:03:47.402Z,2.25
2019-04-22T08:11:27.787Z,2.27
2019-04-22T08:13:36.655Z,2.20
2019-04-22T08:16:04.813Z,2.30
2019-04-22T08:18:37.447Z,2.42
2019-04-22T08:21:04.495Z,2.33
2019-04-22T08:23:39.925Z,2.27
2019-04-22T08:26:01.144Z,2.70
2019-04-22T08:28:41.102Z,2.52
2019-04-22T08:31:10.645Z,2.10
2019-04-22T08:38:43.651Z,2.27
2019-04-22T08:41:22.992Z,2.00
2019-04-22T08:43:54.460Z,2.10
2019-04-22T08:46:23.611Z,1.80
2019-04-22T08:48:45.980Z,2.00
2019-04-22T08:51:13.605Z,2.62
2019-04-22T08:53:48.135Z,2.10
2019-04-22T08:56:23.475Z,2.02
2019-04-22T08:58:50.799Z,1.95
2019-04-22T09:01:17.749Z,2.55
2019-04-22T09:03:45.563Z,2.62
2019-04-22T09:06:19.922Z,2.20
2019-04-22T09:08:50.076Z,2.00
2019-04-22T09:11:20.344Z,2.10
2019-04-22T09:13:50.425Z,2.20
2019-04-22T09:16:19.305Z,2.30
2019-04-22T09:18:48.228Z,1.98
2019-04-22T09:21:19.377Z,2.22
2019-04-22T09:23:53.930Z,2.25
2019-04-22T09:26:18.453Z,2.15
2019-04-22T09:28:54.515Z,2.22
2019-04-22T09:31:28.705Z,1.95
2019-04-22T09:33:46.537Z,2.22
2019-04-22T09:36:27.275Z,2.27
2019-04-22T09:41:18.744Z,2.20
2019-04-22T09:46:14.802Z,2.05
2019-04-22T09:48:50.237Z,2.40
2019-04-22T09:51:16.448Z,2.20
2019-04-22T09:53:54.166Z,2.30
2019-04-22T09:56:18.074Z,1.67
2019-04-22T09:58:53.570Z,2.37
2019-04-22T10:01:24.313Z,2.17
2019-04-22T10:03:52.663Z,2.10
2019-04-22T10:06:23.122Z,2.27
2019-04-22T10:09:02.279Z,2.20
2019-04-22T10:11:23.942Z,2.10
2019-04-22T10:13:49.047Z,2.37
2019-04-22T10:16:20.667Z,2.50
2019-04-22T10:18:49.099Z,2.17
2019-04-22T10:21:18.837Z,2.25
2019-04-22T10:23:47.157Z,2.65
2019-04-22T10:26:22.330Z,2.42
2019-04-22T10:28:53.218Z,2.40
2019-04-22T10:31:21.400Z,2.35
2019-04-22T10:33:37.685Z,2.15
2019-04-22T10:35:51.841Z,2.40
2019-04-22T10:38:20.081Z,2.30
2019-04-22T10:40:48.354Z,2.10
2019-04-22T10:43:17.039Z,2.40
2019-04-22T10:45:46.127Z,2.40
2019-04-22T10:48:14.699Z,2.50
2019-04-22T10:50:44.372Z,2.23
2019-04-22T10:53:13.355Z,2.40
2019-04-22T10:55:44.894Z,2.62
2019-04-22T10:58:12.953Z,2.58
2019-04-22T11:00:41.961Z,2.92
2019-04-22T11:03:11.863Z,2.58
2019-04-22T11:05:42.188Z,2.17
2019-04-22T11:08:22.598Z,2.17
2019-04-22T11:10:56.428Z,2.12
2019-04-22T11:13:10.943Z,2.37
2019-04-22T11:15:40.358Z,2.20
2019-04-22T11:18:09.532Z,2.00
2019-04-22T11:20:37.881Z,2.05
2019-04-22T11:23:06.890Z,2.25
2019-04-22T11:25:36.172Z,2.08
2019-04-22T11:30:34.419Z,1.90
2019-04-22T11:33:02.846Z,2.10
2019-04-22T11:35:32.053Z,2.30
2019-04-22T11:40:34.874Z,2.10
2019-04-22T11:42:59.991Z,2.08
2019-04-22T11:45:29.107Z,2.37
2019-04-22T11:47:57.520Z,2.35
2019-04-22T11:50:26.215Z,1.93
2019-04-22T11:52:55.243Z,1.80
2019-04-22T11:57:54.035Z,2.22
2019-04-22T12:00:25.027Z,2.40
2019-04-22T12:02:54.697Z,2.10
2019-04-22T12:05:23.782Z,2.10
2019-04-22T12:07:53.205Z,2.50
2019-04-22T12:10:30.893Z,2.30
2019-04-22T12:12:53.431Z,2.55
2019-04-22T12:15:22.666Z,2.35
2019-04-22T12:20:20.218Z,3.00
2019-04-22T12:22:49.323Z,2.92
2019-04-22T12:25:30.012Z,2.60
2019-04-22T12:27:47.667Z,2.33
2019-04-22T12:30:16.789Z,2.27
2019-04-22T12:32:45.589Z,2.30
2019-04-22T12:35:15.525Z,2.42
2019-04-22T12:37:49.920Z,2.75
2019-04-22T12:40:29.396Z,2.40
2019-04-22T12:42:47.176Z,2.35
2019-04-22T12:45:16.269Z,2.92
2019-04-22T12:47:46.173Z,2.33
2019-04-22T12:50:22.436Z,2.20
2019-04-22T12:52:53.316Z,3.55
2019-04-22T12:55:17.343Z,2.40
2019-04-22T12:57:46.423Z,2.12
2019-04-22T13:00:17.654Z,2.37
2019-04-22T13:02:47.316Z,2.55
2019-04-22T13:05:16.312Z,2.60
2019-04-22T13:07:44.696Z,2.40
2019-04-22T13:10:13.829Z,2.25
2019-04-22T13:15:14.092Z,2.22
2019-04-22T13:17:42.450Z,2.67
2019-04-22T13:20:13.179Z,1.90
2019-04-22T13:22:40.972Z,2.60
2019-04-22T13:25:12.419Z,2.30
2019-04-22T13:27:40.799Z,2.25
2019-04-22T13:30:12.438Z,2.27
2019-04-22T13:32:40.937Z,2.15
2019-04-22T13:35:10.761Z,2.37
2019-04-22T13:37:39.207Z,2.30
2019-04-22T13:40:07.725Z,2.60
2019-04-22T13:42:37.490Z,2.37
2019-04-22T13:45:09.719Z,2.50
2019-04-22T13:47:56.078Z,2.50
2019-04-22T13:50:43.741Z,3.05
2019-04-22T13:53:23.882Z,4.00
2019-04-22T13:55:40.861Z,2.35
2019-04-22T13:57:53.912Z,2.40
2019-04-22T14:00:13.701Z,2.50
2019-04-22T14:03:00.378Z,8.53
2019-04-22T14:05:31.031Z,2.70
2019-04-22T14:08:00.963Z,2.67
2019-04-22T14:10:30.192Z,2.72
2019-04-22T14:17:56.815Z,2.67
2019-04-22T14:22:56.673Z,2.60
2019-04-22T14:25:24.966Z,3.92
2019-04-22T14:28:00.263Z,3.05
2019-04-22T14:30:24.473Z,2.50
2019-04-22T14:32:54.135Z,3.08
2019-04-22T14:35:23.072Z,2.60
2019-04-22T14:37:52.282Z,2.70
2019-04-22T14:40:22.978Z,2.92
2019-04-22T14:43:05.944Z,2.70
2019-04-22T14:45:58.747Z,2.90
2019-04-22T14:48:18.831Z,2.50
2019-04-22T14:50:41.983Z,2.52
2019-04-22T14:53:15.745Z,2.80
2019-04-22T14:55:26.895Z,2.70
2019-04-22T14:57:52.926Z,2.42
2019-04-22T15:00:23.984Z,2.35
2019-04-22T15:02:52.334Z,2.70
2019-04-22T15:05:22.034Z,2.20
2019-04-22T15:07:50.345Z,2.70
2019-04-22T15:10:20.053Z,2.30
2019-04-22T15:12:53.141Z,2.90
2019-04-22T15:15:42.109Z,2.50
2019-04-22T15:18:26.221Z,3.00
2019-04-22T15:20:56.538Z,2.50
2019-04-22T15:23:24.858Z,2.85
2019-04-22T15:25:54.652Z,3.00
2019-04-22T15:28:23.769Z,2.83
2019-04-22T15:30:53.257Z,3.12
2019-04-22T15:33:21.588Z,3.15
2019-04-22T15:35:51.215Z,2.83
2019-04-22T15:38:22.752Z,2.62
2019-04-22T15:40:49.893Z,2.60
2019-04-22T15:43:18.158Z,2.80
2019-04-22T15:45:46.631Z,2.77
2019-04-22T15:48:15.058Z,3.60
2019-04-22T15:50:44.589Z,2.90
2019-04-22T15:53:13.835Z,2.85
2019-04-22T15:55:42.858Z,3.85
2019-04-22T15:58:12.049Z,2.70
2019-04-22T16:00:52.098Z,3.10
2019-04-22T16:03:12.509Z,3.10
2019-04-22T16:05:41.710Z,2.47
2019-04-22T16:08:10.862Z,3.00
2019-04-22T16:10:39.829Z,3.08
2019-04-22T16:13:15.137Z,3.27
2019-04-22T16:15:38.392Z,3.20
2019-04-22T16:18:08.620Z,3.20
2019-04-22T16:20:36.609Z,3.30
2019-04-22T16:23:15.611Z,3.37
2019-04-22T16:25:47.159Z,2.98
2019-04-22T16:28:15.607Z,2.87
2019-04-22T16:30:43.845Z,3.40
2019-04-22T16:33:13.174Z,3.22
2019-04-22T16:35:42.665Z,3.40
2019-04-22T16:40:40.760Z,3.90
2019-04-22T16:43:10.127Z,3.50
2019-04-22T16:45:40.012Z,3.60
2019-04-22T16:48:09.377Z,3.60
2019-04-22T16:53:08.327Z,3.20
2019-04-22T16:55:36.938Z,3.15
2019-04-22T16:58:05.431Z,3.90
2019-04-22T17:00:34.406Z,3.33
2019-04-22T17:03:10.833Z,3.45
2019-04-22T17:05:56.837Z,3.67
2019-04-22T17:08:26.587Z,3.80
2019-04-22T17:10:55.783Z,3.45
2019-04-22T17:13:28.361Z,3.40
2019-04-22T17:15:56.905Z,4.20
2019-04-22T17:18:25.356Z,3.70
2019-04-22T17:20:55.009Z,3.47
2019-04-22T17:23:23.449Z,3.80
2019-04-22T17:25:52.490Z,4.23
2019-04-22T17:28:21.581Z,3.80
2019-04-22T17:30:50.069Z,3.60
2019-04-22T17:33:18.880Z,3.58
2019-04-22T17:35:49.965Z,3.87
2019-04-22T17:38:28.497Z,3.90
2019-04-22T17:41:01.477Z,3.83
2019-04-22T17:43:48.163Z,3.45
2019-04-22T17:46:24.771Z,3.87
2019-04-22T17:48:59.190Z,3.72
2019-04-22T17:51:27.591Z,3.90
2019-04-22T17:54:02.337Z,3.50
2019-04-22T17:56:31.971Z,3.37
2019-04-22T17:59:04.024Z,3.80
2019-04-22T18:01:29.721Z,3.60
2019-04-22T18:03:49.208Z,3.85
2019-04-22T18:06:42.862Z,3.45
2019-04-22T18:09:03.556Z,4.05
2019-04-22T18:11:40.201Z,3.75
2019-04-22T18:14:16.902Z,3.50
2019-04-22T18:16:31.938Z,3.52
2019-04-22T18:19:02.804Z,4.00
2019-04-22T18:21:31.851Z,3.20
2019-04-22T18:23:58.144Z,3.62
2019-04-22T18:26:32.103Z,4.10
2019-04-22T18:29:07.583Z,3.92
2019-04-22T18:31:27.114Z,3.50
2019-04-22T18:34:01.965Z,4.08
2019-04-22T18:36:33.257Z,4.70
2019-04-22T18:39:10.100Z,6.20
2019-04-22T18:41:34.253Z,4.12
2019-04-22T18:44:08.059Z,3.42
2019-04-22T18:46:35.202Z,4.30
2019-04-22T18:49:03.409Z,5.20
2019-04-22T18:51:43.856Z,4.67
2019-04-22T18:54:28.862Z,5.17
2019-04-22T18:56:50.793Z,4.72
2019-04-22T18:59:15.828Z,3.80
2019-04-22T19:01:37.781Z,4.20
2019-04-22T19:04:14.195Z,6.08
2019-04-22T19:07:00.356Z,6.50
2019-04-22T19:09:38.277Z,6.67
2019-04-22T19:12:08.002Z,4.45
2019-04-22T19:14:35.068Z,4.33
2019-04-22T19:17:11.894Z,4.00
2019-04-22T19:19:33.488Z,5.37
2019-04-22T19:21:58.851Z,4.90
2019-04-22T19:24:22.897Z,3.67
2019-04-22T19:27:02.432Z,5.05
2019-04-22T19:29:39.961Z,6.17
2019-04-22T19:32:01.920Z,5.08
2019-04-22T19:34:38.487Z,4.45
2019-04-22T19:37:10.890Z,4.20
2019-04-22T19:39:31.052Z,5.00
2019-04-22T19:42:12.447Z,5.08
2019-04-22T19:44:41.186Z,4.80
2019-04-22T19:49:48.118Z,4.35
2019-04-22T19:52:11.289Z,4.22
2019-04-22T19:54:38.734Z,7.92
2019-04-22T19:56:57.190Z,5.05
2019-04-22T19:59:32.285Z,4.72
2019-04-22T20:02:12.866Z,4.80
2019-04-22T20:04:59.638Z,4.50
2019-04-22T20:07:27.726Z,4.37
2019-04-22T20:09:57.345Z,4.63
2019-04-22T20:12:26.064Z,4.30
2019-04-22T20:14:57.768Z,4.63
2019-04-22T20:17:41.676Z,4.20
2019-04-22T20:20:05.916Z,4.73
2019-04-22T20:22:30.392Z,4.12
2019-04-22T20:24:47.094Z,4.57
2019-04-22T20:27:30.322Z,4.90
2019-04-22T20:29:58.196Z,3.93
2019-04-22T20:32:26.261Z,4.47
2019-04-22T20:35:02.782Z,4.08
2019-04-22T20:37:35.481Z,4.53
2019-04-22T20:40:02.432Z,4.27
2019-04-22T20:42:48.605Z,4.53
2019-04-22T20:44:57.008Z,4.40
2019-04-22T20:47:21.696Z,4.12
2019-04-22T20:50:04.517Z,4.67
2019-04-22T20:52:34.418Z,3.98
2019-04-22T20:54:55.602Z,4.50
2019-04-22T20:57:33.265Z,4.60
2019-04-22T20:59:57.306Z,6.93
2019-04-22T21:02:25.230Z,5.95
2019-04-22T21:04:48.801Z,4.80
2019-04-22T21:07:24.081Z,4.50
2019-04-22T21:09:59.326Z,4.50
2019-04-22T21:12:20.279Z,4.45
2019-04-22T21:15:00.455Z,4.87
2019-04-22T21:17:33.737Z,4.58
2019-04-22T21:20:06.792Z,5.33
2019-04-22T21:22:35.758Z,7.03
2019-04-22T21:24:52.298Z,4.17
2019-04-22T21:27:35.720Z,4.78
2019-04-22T21:29:56.342Z,4.10
2019-04-22T21:32:31.267Z,4.47
2019-04-22T21:35:16.327Z,4.30
2019-04-22T21:37:36.087Z,3.75
2019-04-22T21:39:51.923Z,4.53
2019-04-22T21:42:28.516Z,4.72
2019-04-22T21:44:56.952Z,4.37
2019-04-22T21:47:34.893Z,4.25
2019-04-22T21:50:18.095Z,4.30
2019-04-22T21:52:28.223Z,4.47
2019-04-22T21:55:08.718Z,4.93
2019-04-22T21:57:57.230Z,4.47
2019-04-22T22:00:31.189Z,4.42
2019-04-22T22:02:52.198Z,4.37
2019-04-22T22:05:14.332Z,4.37
2019-04-22T22:07:30.769Z,4.47
2019-04-22T22:10:16.525Z,4.25
2019-04-22T22:12:52.612Z,5.22
2019-04-22T22:15:23.116Z,4.83
2019-04-22T22:17:50.387Z,4.60
2019-04-22T22:20:17.295Z,5.20
2019-04-22T22:22:51.919Z,4.55
2019-04-22T22:25:19.872Z,5.33
2019-04-22T22:27:46.609Z,5.33
2019-04-22T22:30:37.149Z,5.97
2019-04-22T22:32:51.317Z,4.80
2019-04-22T22:35:20.674Z,4.90
2019-04-22T22:37:48.687Z,5.00
2019-04-22T22:40:07.522Z,5.17
2019-04-22T22:42:36.183Z,4.65
2019-04-22T22:45:07.784Z,4.65
2019-04-22T22:47:44.315Z,4.78
2019-04-22T22:50:20.057Z,4.42
2019-04-22T22:55:14.816Z,5.30
2019-04-22T22:57:50.058Z,5.20
2019-04-22T23:00:17.939Z,5.53
2019-04-22T23:03:04.914Z,5.17
2019-04-22T23:05:23.893Z,5.40
2019-04-22T23:07:55.412Z,6.00
2019-04-22T23:10:19.747Z,5.70
2019-04-22T23:12:55.652Z,5.87
2019-04-22T23:15:18.515Z,6.20
2019-04-22T23:17:30.458Z,5.97
2019-04-22T23:20:01.145Z,6.47
2019-04-22T23:22:41.584Z,5.97
2019-04-22T23:25:23.409Z,5.77
2019-04-22T23:27:46.107Z,5.43
2019-04-22T23:30:25.462Z,6.47
2019-04-22T23:33:03.566Z,5.40
2019-04-22T23:35:48.898Z,6.03
2019-04-22T23:38:20.608Z,6.23
2019-04-22T23:40:53.853Z,6.83
2019-04-22T23:43:27.335Z,6.00
2019-04-22T23:46:01.670Z,6.30
2019-04-22T23:48:17.920Z,6.20
2019-04-22T23:50:55.758Z,5.90
2019-04-22T23:53:55.844Z,5.70
2019-04-22T23:56:00.214Z,6.62
2019-04-22T23:58:47.650Z,6.07
